Date,TemperatureHighF,TemperatureAvgF,TemperatureLowF,DewpointHighF,DewpointAvgF,DewpointLowF,HumidityHigh,HumidityAvg,HumidityLow,PressureMaxIn,PressureMinIn,WindSpeedMaxMPH,WindSpeedAvgMPH,GustSpeedMaxMPH,PrecipitationSumIn
2013-2-1,29.4,21.7,14.7,18.0,10.7,8.0,76,59,42,28.75,28.31,14,2,16,0.00
2013-2-2,27.3,18.8,8.1,16.0,8.7,4.0,93,62,40,28.87,28.70,11,1,12,0.00
2013-2-3,31.2,20.5,12.4,18.0,14.8,11.0,100,76,48,28.71,28.42,7,0,9,0.00
2013-2-4,27.5,18.9,11.8,16.0,11.5,4.0,100,70,43,28.58,28.41,12,2,13,0.00
2013-2-5,27.9,19.6,10.2,23.0,12.9,8.0,98,73,47,28.68,28.58,8,1,8,0.00
2013-2-6,34.9,24.2,15.2,26.0,16.9,4.0,100,73,42,28.97,28.59,10,1,12,0.00
2013-2-7,27.2,19.4,8.9,8.0,5.9,4.0,91,54,34,29.19,28.96,9,1,10,0.00
2013-2-8,22.9,20.5,16.2,23.0,16.8,4.0,100,85,44,29.11,28.46,12,2,12,0.00
2013-2-9,21.5,15.3,9.8,18.0,12.0,0.0,100,84,56,28.90,28.44,20,3,20,0.00
2013-2-10,33.6,17.8,3.3,11.0,5.9,4.0,99,61,26,29.13,28.90,8,1,10,0.05
2013-2-11,34.3,25.9,15.8,35.0,24.9,11.0,100,94,70,28.98,28.37,8,1,9,0.00
2013-2-12,38.2,34.6,31.4,35.0,28.7,23.0,100,78,67,28.62,28.38,16,2,17,0.20
2013-2-13,39.4,31.5,25.8,26.0,23.0,21.0,85,70,49,28.59,28.44,8,1,9,0.13
2013-2-14,45.3,31.0,20.9,23.0,21.8,18.0,96,68,37,28.67,28.43,9,0,9,0.23
2013-2-15,50.9,34.5,22.0,32.0,25.8,21.0,100,73,38,28.70,28.63,11,2,12,0.27
2013-2-16,40.5,31.1,22.8,31.0,21.5,4.0,100,69,39,28.71,28.49,11,1,13,0.06
2013-2-17,22.8,17.2,10.1,11.0,5.6,0.0,67,56,46,28.49,28.21,20,3,21,0.00
2013-2-18,29.4,17.0,7.3,8.0,2.4,-6.0,78,50,21,28.81,28.44,13,2,19,0.00
2013-2-19,39.2,28.0,12.8,37.0,20.6,4.0,100,73,45,28.82,28.32,10,1,10,0.04
2013-2-20,34.5,26.3,19.9,35.0,19.1,14.0,100,72,50,28.49,28.32,16,2,16,0.00
2013-2-21,31.8,22.9,17.1,21.0,14.3,8.0,97,67,43,28.96,28.47,15,2,15,0.00
2013-2-22,39.8,29.0,18.0,24.0,21.3,18.0,100,73,42,29.11,28.95,9,1,9,0.00
2013-2-23,33.1,31.1,28.9,33.0,29.1,24.0,100,92,78,29.01,28.65,8,1,10,0.03
2013-2-24,38.1,32.7,29.9,37.0,32.6,31.0,100,99,93,28.64,28.50,6,0,7,0.25
2013-2-25,38.2,31.9,23.3,35.0,30.7,23.0,100,94,78,28.90,28.64,7,0,7,0.19